sensor_id;sensor_type;location;lat;lon;timestamp;temperature;humidity
6948;DHT22;3513;47.664;9.162;2023-02-07T00:01:15;-0.70;96.00
6948;DHT22;3513;47.664;9.162;2023-02-07T00:03:41;-0.80;96.00
6948;DHT22;3513;47.664;9.162;2023-02-07T00:06:16;-0.80;96.40
6948;DHT22;3513;47.664;9.162;2023-02-07T00:08:44;-0.90;96.40
6948;DHT22;3513;47.664;9.162;2023-02-07T00:11:12;-0.90;96.60
6948;DHT22;3513;47.664;9.162;2023-02-07T00:13:38;0.30;97.20
6948;DHT22;3513;47.664;9.162;2023-02-07T00:16:05;0.20;97.40
6948;DHT22;3513;47.664;9.162;2023-02-07T00:18:32;-0.90;97.30
6948;DHT22;3513;47.664;9.162;2023-02-07T00:20:59;-0.90;96.80
6948;DHT22;3513;47.664;9.162;2023-02-07T00:23:26;-0.90;96.50
6948;DHT22;3513;47.664;9.162;2023-02-07T00:25:52;0.90;97.20
6948;DHT22;3513;47.664;9.162;2023-02-07T00:28:17;-0.80;96.30
6948;DHT22;3513;47.664;9.162;2023-02-07T00:30:43;-0.90;95.90
6948;DHT22;3513;47.664;9.162;2023-02-07T00:33:09;-0.90;95.80
6948;DHT22;3513;47.664;9.162;2023-02-07T00:35:35;0.40;96.40
6948;DHT22;3513;47.664;9.162;2023-02-07T00:38:02;-1.00;96.00
6948;DHT22;3513;47.664;9.162;2023-02-07T00:40:28;-1.00;96.10
6948;DHT22;3513;47.664;9.162;2023-02-07T00:42:53;0.50;97.00
6948;DHT22;3513;47.664;9.162;2023-02-07T00:45:19;-1.00;96.30
6948;DHT22;3513;47.664;9.162;2023-02-07T00:47:45;-1.00;96.30
6948;DHT22;3513;47.664;9.162;2023-02-07T00:50:10;-0.10;96.80
6948;DHT22;3513;47.664;9.162;2023-02-07T00:52:36;-1.00;96.40
6948;DHT22;3513;47.664;9.162;2023-02-07T00:55:02;-1.70;96.20
6948;DHT22;3513;47.664;9.162;2023-02-07T00:57:28;-0.30;97.00
6948;DHT22;3513;47.664;9.162;2023-02-07T00:59:54;-1.10;96.60
6948;DHT22;3513;47.664;9.162;2023-02-07T01:02:20;-1.20;96.70
6948;DHT22;3513;47.664;9.162;2023-02-07T01:04:46;-1.20;96.70
6948;DHT22;3513;47.664;9.162;2023-02-07T01:07:11;0.90;97.70
6948;DHT22;3513;47.664;9.162;2023-02-07T01:09:37;-0.90;96.90
6948;DHT22;3513;47.664;9.162;2023-02-07T01:12:04;-1.20;96.90
6948;DHT22;3513;47.664;9.162;2023-02-07T01:14:30;-1.20;97.00
6948;DHT22;3513;47.664;9.162;2023-02-07T01:16:56;-1.30;97.00
6948;DHT22;3513;47.664;9.162;2023-02-07T01:19:22;-1.20;97.10
6948;DHT22;3513;47.664;9.162;2023-02-07T01:21:48;-1.20;97.00
6948;DHT22;3513;47.664;9.162;2023-02-07T01:24:14;-1.10;97.10
6948;DHT22;3513;47.664;9.162;2023-02-07T01:26:40;-0.20;97.80
6948;DHT22;3513;47.664;9.162;2023-02-07T01:29:06;-0.30;97.80
6948;DHT22;3513;47.664;9.162;2023-02-07T01:31:32;-1.40;97.70
6948;DHT22;3513;47.664;9.162;2023-02-07T01:33:59;-0.20;98.50
6948;DHT22;3513;47.664;9.162;2023-02-07T01:36:27;-2.00;97.70
6948;DHT22;3513;47.664;9.162;2023-02-07T01:38:54;-1.50;98.10
6948;DHT22;3513;47.664;9.162;2023-02-07T01:41:21;0.30;98.90
6948;DHT22;3513;47.664;9.162;2023-02-07T01:46:48;-1.50;97.90
6948;DHT22;3513;47.664;9.162;2023-02-07T01:49:18;-1.40;97.90
6948;DHT22;3513;47.664;9.162;2023-02-07T01:51:52;0.40;98.70
6948;DHT22;3513;47.664;9.162;2023-02-07T01:54:19;-1.30;97.60
6948;DHT22;3513;47.664;9.162;2023-02-07T01:56:52;-1.30;97.60
6948;DHT22;3513;47.664;9.162;2023-02-07T01:59:19;-1.50;97.50
6948;DHT22;3513;47.664;9.162;2023-02-07T02:01:45;-1.40;97.60
6948;DHT22;3513;47.664;9.162;2023-02-07T02:04:12;0.00;98.30
6948;DHT22;3513;47.664;9.162;2023-02-07T02:06:39;-1.40;97.50
6948;DHT22;3513;47.664;9.162;2023-02-07T02:09:13;-0.70;98.00
6948;DHT22;3513;47.664;9.162;2023-02-07T02:17:31;-1.40;98.00
6948;DHT22;3513;47.664;9.162;2023-02-07T02:23:14;-1.40;98.10
6948;DHT22;3513;47.664;9.162;2023-02-07T02:25:48;-1.40;98.00
6948;DHT22;3513;47.664;9.162;2023-02-07T02:33:59;-1.40;97.90
6948;DHT22;3513;47.664;9.162;2023-02-07T02:36:51;-1.50;97.90
6948;DHT22;3513;47.664;9.162;2023-02-07T02:39:33;-1.50;98.20
6948;DHT22;3513;47.664;9.162;2023-02-07T02:45:00;-1.50;98.60
6948;DHT22;3513;47.664;9.162;2023-02-07T02:47:28;-1.50;98.20
6948;DHT22;3513;47.664;9.162;2023-02-07T02:49:56;-1.50;98.20
6948;DHT22;3513;47.664;9.162;2023-02-07T02:52:22;-1.50;98.10
6948;DHT22;3513;47.664;9.162;2023-02-07T02:54:47;-1.50;98.20
6948;DHT22;3513;47.664;9.162;2023-02-07T02:57:42;-1.50;98.20
6948;DHT22;3513;47.664;9.162;2023-02-07T03:00:48;-1.50;98.30
6948;DHT22;3513;47.664;9.162;2023-02-07T03:06:32;-1.50;98.00
6948;DHT22;3513;47.664;9.162;2023-02-07T03:12:20;-1.50;97.80
6948;DHT22;3513;47.664;9.162;2023-02-07T03:17:33;-1.50;97.70
6948;DHT22;3513;47.664;9.162;2023-02-07T03:20:23;-1.60;97.60
6948;DHT22;3513;47.664;9.162;2023-02-07T03:22:52;-1.50;97.60
6948;DHT22;3513;47.664;9.162;2023-02-07T03:25:22;-1.60;97.30
6948;DHT22;3513;47.664;9.162;2023-02-07T03:27:48;-1.60;97.50
6948;DHT22;3513;47.664;9.162;2023-02-07T03:30:17;-1.70;97.50
6948;DHT22;3513;47.664;9.162;2023-02-07T03:32:50;-1.70;97.80
6948;DHT22;3513;47.664;9.162;2023-02-07T03:35:26;-1.70;97.90
6948;DHT22;3513;47.664;9.162;2023-02-07T03:37:58;-1.70;97.90
6948;DHT22;3513;47.664;9.162;2023-02-07T03:40:31;-1.80;98.00
6948;DHT22;3513;47.664;9.162;2023-02-07T03:43:15;-1.70;98.10
6948;DHT22;3513;47.664;9.162;2023-02-07T03:45:42;-1.80;98.10
6948;DHT22;3513;47.664;9.162;2023-02-07T03:48:08;-1.80;98.30
6948;DHT22;3513;47.664;9.162;2023-02-07T03:50:34;-1.80;98.30
6948;DHT22;3513;47.664;9.162;2023-02-07T03:52:59;-1.80;98.50
6948;DHT22;3513;47.664;9.162;2023-02-07T03:55:25;-1.90;98.30
6948;DHT22;3513;47.664;9.162;2023-02-07T03:57:52;-1.80;98.10
6948;DHT22;3513;47.664;9.162;2023-02-07T04:00:17;-1.80;98.20
6948;DHT22;3513;47.664;9.162;2023-02-07T04:02:43;-1.80;98.10
6948;DHT22;3513;47.664;9.162;2023-02-07T04:05:09;-1.70;98.10
6948;DHT22;3513;47.664;9.162;2023-02-07T04:07:34;-1.70;97.70
6948;DHT22;3513;47.664;9.162;2023-02-07T04:10:00;-1.80;97.90
6948;DHT22;3513;47.664;9.162;2023-02-07T04:12:27;-1.90;98.10
6948;DHT22;3513;47.664;9.162;2023-02-07T04:15:00;-1.90;98.40
6948;DHT22;3513;47.664;9.162;2023-02-07T04:17:26;-1.90;98.60
6948;DHT22;3513;47.664;9.162;2023-02-07T04:19:52;-1.90;98.60
6948;DHT22;3513;47.664;9.162;2023-02-07T04:22:18;-1.90;98.40
6948;DHT22;3513;47.664;9.162;2023-02-07T04:24:43;-1.90;98.40
6948;DHT22;3513;47.664;9.162;2023-02-07T04:27:09;-1.90;98.30
6948;DHT22;3513;47.664;9.162;2023-02-07T04:29:34;-2.00;98.40
6948;DHT22;3513;47.664;9.162;2023-02-07T04:32:00;-2.00;98.60
6948;DHT22;3513;47.664;9.162;2023-02-07T04:34:27;-2.00;98.70
6948;DHT22;3513;47.664;9.162;2023-02-07T04:36:52;-2.00;98.80
6948;DHT22;3513;47.664;9.162;2023-02-07T04:39:18;-2.00;98.70
6948;DHT22;3513;47.664;9.162;2023-02-07T04:41:43;-2.00;98.70
6948;DHT22;3513;47.664;9.162;2023-02-07T04:44:10;-2.00;98.70
6948;DHT22;3513;47.664;9.162;2023-02-07T04:46:36;-2.10;98.80
6948;DHT22;3513;47.664;9.162;2023-02-07T04:49:01;-2.10;98.80
6948;DHT22;3513;47.664;9.162;2023-02-07T04:51:29;-2.10;98.90
6948;DHT22;3513;47.664;9.162;2023-02-07T04:53:54;-2.70;98.80
6948;DHT22;3513;47.664;9.162;2023-02-07T04:56:21;-2.10;98.90
6948;DHT22;3513;47.664;9.162;2023-02-07T04:58:46;-2.10;98.90
6948;DHT22;3513;47.664;9.162;2023-02-07T05:01:12;-2.10;99.00
6948;DHT22;3513;47.664;9.162;2023-02-07T05:03:38;-2.10;99.00
6948;DHT22;3513;47.664;9.162;2023-02-07T05:06:04;-2.10;99.10
6948;DHT22;3513;47.664;9.162;2023-02-07T05:08:30;-2.20;99.00
6948;DHT22;3513;47.664;9.162;2023-02-07T05:10:55;-2.20;99.10
6948;DHT22;3513;47.664;9.162;2023-02-07T05:13:23;-2.20;99.10
6948;DHT22;3513;47.664;9.162;2023-02-07T05:15:48;-2.20;99.10
6948;DHT22;3513;47.664;9.162;2023-02-07T05:18:14;-2.30;99.20
6948;DHT22;3513;47.664;9.162;2023-02-07T05:20:40;-2.20;99.40
6948;DHT22;3513;47.664;9.162;2023-02-07T05:23:05;-2.20;99.40
6948;DHT22;3513;47.664;9.162;2023-02-07T05:25:31;-2.20;99.40
6948;DHT22;3513;47.664;9.162;2023-02-07T05:27:57;-2.20;99.40
6948;DHT22;3513;47.664;9.162;2023-02-07T05:30:22;-2.20;99.20
6948;DHT22;3513;47.664;9.162;2023-02-07T05:32:48;-2.20;99.20
6948;DHT22;3513;47.664;9.162;2023-02-07T05:35:38;-2.30;99.30
6948;DHT22;3513;47.664;9.162;2023-02-07T05:38:13;-2.20;99.30
6948;DHT22;3513;47.664;9.162;2023-02-07T05:40:42;-2.20;99.20
6948;DHT22;3513;47.664;9.162;2023-02-07T05:43:08;-2.30;99.20
6948;DHT22;3513;47.664;9.162;2023-02-07T05:45:35;-2.30;99.30
6948;DHT22;3513;47.664;9.162;2023-02-07T05:48:01;-2.30;99.40
6948;DHT22;3513;47.664;9.162;2023-02-07T05:50:27;-2.30;99.40
6948;DHT22;3513;47.664;9.162;2023-02-07T05:52:52;-2.30;99.30
6948;DHT22;3513;47.664;9.162;2023-02-07T05:55:18;-2.30;99.40
6948;DHT22;3513;47.664;9.162;2023-02-07T05:57:44;-2.40;99.40
6948;DHT22;3513;47.664;9.162;2023-02-07T06:00:12;-2.40;99.50
6948;DHT22;3513;47.664;9.162;2023-02-07T06:02:39;-2.40;99.60
6948;DHT22;3513;47.664;9.162;2023-02-07T06:05:06;-2.40;99.70
6948;DHT22;3513;47.664;9.162;2023-02-07T06:07:32;-2.40;99.80
6948;DHT22;3513;47.664;9.162;2023-02-07T06:09:57;-2.50;99.80
6948;DHT22;3513;47.664;9.162;2023-02-07T06:12:23;-2.40;99.90
6948;DHT22;3513;47.664;9.162;2023-02-07T06:14:48;-2.40;99.90
6948;DHT22;3513;47.664;9.162;2023-02-07T06:17:14;-2.40;99.90
6948;DHT22;3513;47.664;9.162;2023-02-07T06:19:39;-2.50;99.90
6948;DHT22;3513;47.664;9.162;2023-02-07T06:22:05;-2.50;99.90
6948;DHT22;3513;47.664;9.162;2023-02-07T06:24:31;-2.50;99.90
6948;DHT22;3513;47.664;9.162;2023-02-07T06:26:56;-2.60;99.90
6948;DHT22;3513;47.664;9.162;2023-02-07T06:29:22;-2.60;99.90
6948;DHT22;3513;47.664;9.162;2023-02-07T06:31:48;-2.60;99.90
6948;DHT22;3513;47.664;9.162;2023-02-07T06:34:13;-2.60;99.90
6948;DHT22;3513;47.664;9.162;2023-02-07T06:36:39;-2.60;99.90
6948;DHT22;3513;47.664;9.162;2023-02-07T06:39:04;-2.60;99.90
6948;DHT22;3513;47.664;9.162;2023-02-07T06:41:31;-2.60;99.90
6948;DHT22;3513;47.664;9.162;2023-02-07T06:43:56;-2.60;99.90
6948;DHT22;3513;47.664;9.162;2023-02-07T06:46:22;-2.60;99.90
6948;DHT22;3513;47.664;9.162;2023-02-07T06:48:48;-2.60;99.90
6948;DHT22;3513;47.664;9.162;2023-02-07T06:51:13;-2.60;99.90
6948;DHT22;3513;47.664;9.162;2023-02-07T06:53:39;-2.60;99.90
6948;DHT22;3513;47.664;9.162;2023-02-07T06:56:05;-2.50;99.90
6948;DHT22;3513;47.664;9.162;2023-02-07T06:58:30;-2.50;99.90
6948;DHT22;3513;47.664;9.162;2023-02-07T07:00:56;-2.60;99.90
6948;DHT22;3513;47.664;9.162;2023-02-07T07:03:21;-2.50;99.90
6948;DHT22;3513;47.664;9.162;2023-02-07T07:05:51;-2.50;99.90
6948;DHT22;3513;47.664;9.162;2023-02-07T07:08:17;-2.50;99.90
6948;DHT22;3513;47.664;9.162;2023-02-07T07:10:43;-2.50;99.90
6948;DHT22;3513;47.664;9.162;2023-02-07T07:13:09;-2.40;99.90
6948;DHT22;3513;47.664;9.162;2023-02-07T07:15:35;-2.40;99.90
6948;DHT22;3513;47.664;9.162;2023-02-07T07:18:00;-2.40;99.90
6948;DHT22;3513;47.664;9.162;2023-02-07T07:20:26;-2.40;99.90
6948;DHT22;3513;47.664;9.162;2023-02-07T07:22:51;-2.30;99.90
6948;DHT22;3513;47.664;9.162;2023-02-07T07:25:17;-2.20;99.90
6948;DHT22;3513;47.664;9.162;2023-02-07T07:27:44;-2.20;99.90
6948;DHT22;3513;47.664;9.162;2023-02-07T07:30:10;-2.10;99.90
6948;DHT22;3513;47.664;9.162;2023-02-07T07:32:35;-2.10;99.90
6948;DHT22;3513;47.664;9.162;2023-02-07T07:35:02;-2.00;99.90
6948;DHT22;3513;47.664;9.162;2023-02-07T07:37:28;-2.00;99.90
6948;DHT22;3513;47.664;9.162;2023-02-07T07:39:53;-2.00;99.90
6948;DHT22;3513;47.664;9.162;2023-02-07T07:42:19;-1.90;99.90
6948;DHT22;3513;47.664;9.162;2023-02-07T07:44:44;-1.90;99.90
6948;DHT22;3513;47.664;9.162;2023-02-07T07:47:10;-1.80;99.70
6948;DHT22;3513;47.664;9.162;2023-02-07T07:49:36;-1.80;99.50
6948;DHT22;3513;47.664;9.162;2023-02-07T07:52:01;-1.70;99.50
6948;DHT22;3513;47.664;9.162;2023-02-07T07:54:27;-1.70;99.30
6948;DHT22;3513;47.664;9.162;2023-02-07T07:56:52;-1.60;99.10
6948;DHT22;3513;47.664;9.162;2023-02-07T07:59:18;-1.60;99.30
6948;DHT22;3513;47.664;9.162;2023-02-07T08:01:43;-1.50;99.00
6948;DHT22;3513;47.664;9.162;2023-02-07T08:04:09;-1.40;99.00
6948;DHT22;3513;47.664;9.162;2023-02-07T08:06:35;-1.30;98.90
6948;DHT22;3513;47.664;9.162;2023-02-07T08:09:00;-1.30;98.40
6948;DHT22;3513;47.664;9.162;2023-02-07T08:11:26;-1.30;97.90
6948;DHT22;3513;47.664;9.162;2023-02-07T08:13:51;-1.20;97.90
6948;DHT22;3513;47.664;9.162;2023-02-07T08:16:17;-1.20;97.90
6948;DHT22;3513;47.664;9.162;2023-02-07T08:18:43;-1.10;97.80
6948;DHT22;3513;47.664;9.162;2023-02-07T08:21:09;-1.10;97.70
6948;DHT22;3513;47.664;9.162;2023-02-07T08:23:35;-1.10;97.40
6948;DHT22;3513;47.664;9.162;2023-02-07T08:26:01;-1.00;97.20
6948;DHT22;3513;47.664;9.162;2023-02-07T08:28:27;-1.00;96.60
6948;DHT22;3513;47.664;9.162;2023-02-07T08:30:53;-1.00;96.30
6948;DHT22;3513;47.664;9.162;2023-02-07T08:33:19;-1.00;96.10
6948;DHT22;3513;47.664;9.162;2023-02-07T08:35:44;-1.10;96.00
6948;DHT22;3513;47.664;9.162;2023-02-07T08:38:10;-1.10;95.90
6948;DHT22;3513;47.664;9.162;2023-02-07T08:40:36;-1.10;95.80
6948;DHT22;3513;47.664;9.162;2023-02-07T08:43:03;-1.10;95.70
6948;DHT22;3513;47.664;9.162;2023-02-07T08:45:32;-1.20;95.60
6948;DHT22;3513;47.664;9.162;2023-02-07T08:47:57;-1.20;95.90
6948;DHT22;3513;47.664;9.162;2023-02-07T08:50:24;-1.10;95.90
6948;DHT22;3513;47.664;9.162;2023-02-07T08:52:49;-0.90;96.00
6948;DHT22;3513;47.664;9.162;2023-02-07T08:55:15;-0.90;95.70
6948;DHT22;3513;47.664;9.162;2023-02-07T08:57:41;-0.90;95.40
6948;DHT22;3513;47.664;9.162;2023-02-07T09:00:08;-0.90;95.10
6948;DHT22;3513;47.664;9.162;2023-02-07T09:02:34;-0.80;95.30
6948;DHT22;3513;47.664;9.162;2023-02-07T09:04:59;-0.80;95.20
6948;DHT22;3513;47.664;9.162;2023-02-07T09:07:25;-0.70;95.00
6948;DHT22;3513;47.664;9.162;2023-02-07T09:09:51;-0.70;94.50
6948;DHT22;3513;47.664;9.162;2023-02-07T09:12:16;-0.70;94.60
6948;DHT22;3513;47.664;9.162;2023-02-07T09:14:42;-0.80;94.50
6948;DHT22;3513;47.664;9.162;2023-02-07T09:17:08;-0.70;94.50
6948;DHT22;3513;47.664;9.162;2023-02-07T09:19:34;0.60;95.10
6948;DHT22;3513;47.664;9.162;2023-02-07T09:22:01;-0.60;94.20
6948;DHT22;3513;47.664;9.162;2023-02-07T09:24:27;0.60;94.80
6948;DHT22;3513;47.664;9.162;2023-02-07T09:26:52;-0.60;93.80
6948;DHT22;3513;47.664;9.162;2023-02-07T09:29:18;-0.50;94.00
6948;DHT22;3513;47.664;9.162;2023-02-07T09:31:45;-0.30;94.10
6948;DHT22;3513;47.664;9.162;2023-02-07T09:34:11;0.80;94.50
6948;DHT22;3513;47.664;9.162;2023-02-07T09:36:37;-0.20;93.90
6948;DHT22;3513;47.664;9.162;2023-02-07T09:39:03;2.00;94.70
6948;DHT22;3513;47.664;9.162;2023-02-07T09:47:23;-0.10;93.70
6948;DHT22;3513;47.664;9.162;2023-02-07T09:50:12;0.10;94.10
6948;DHT22;3513;47.664;9.162;2023-02-07T09:53:11;0.30;93.80
6948;DHT22;3513;47.664;9.162;2023-02-07T09:55:43;0.30;92.80
6948;DHT22;3513;47.664;9.162;2023-02-07T09:58:16;0.30;92.40
6948;DHT22;3513;47.664;9.162;2023-02-07T10:00:45;0.80;92.30
6948;DHT22;3513;47.664;9.162;2023-02-07T10:03:19;0.20;91.70
6948;DHT22;3513;47.664;9.162;2023-02-07T10:05:47;0.20;92.10
6948;DHT22;3513;47.664;9.162;2023-02-07T10:08:16;1.20;92.70
6948;DHT22;3513;47.664;9.162;2023-02-07T10:10:45;0.60;92.40
6948;DHT22;3513;47.664;9.162;2023-02-07T10:18:56;0.20;92.10
6948;DHT22;3513;47.664;9.162;2023-02-07T10:24:20;0.20;91.60
6948;DHT22;3513;47.664;9.162;2023-02-07T10:27:15;0.20;91.50
6948;DHT22;3513;47.664;9.162;2023-02-07T10:33:01;0.40;91.50
6948;DHT22;3513;47.664;9.162;2023-02-07T10:35:34;0.40;91.20
6948;DHT22;3513;47.664;9.162;2023-02-07T10:38:11;0.40;91.40
6948;DHT22;3513;47.664;9.162;2023-02-07T10:40:54;0.60;92.00
6948;DHT22;3513;47.664;9.162;2023-02-07T10:43:30;2.60;92.50
6948;DHT22;3513;47.664;9.162;2023-02-07T10:46:05;0.80;91.30
6948;DHT22;3513;47.664;9.162;2023-02-07T10:48:34;0.90;91.20
6948;DHT22;3513;47.664;9.162;2023-02-07T10:51:02;1.10;91.20
6948;DHT22;3513;47.664;9.162;2023-02-07T10:53:50;1.10;91.20
6948;DHT22;3513;47.664;9.162;2023-02-07T10:56:29;1.10;90.50
6948;DHT22;3513;47.664;9.162;2023-02-07T10:58:57;1.20;90.30
6948;DHT22;3513;47.664;9.162;2023-02-07T11:01:31;1.30;90.70
6948;DHT22;3513;47.664;9.162;2023-02-07T11:04:36;1.40;90.90
6948;DHT22;3513;47.664;9.162;2023-02-07T11:07:04;1.30;89.20
6948;DHT22;3513;47.664;9.162;2023-02-07T11:09:30;1.20;88.90
6948;DHT22;3513;47.664;9.162;2023-02-07T11:12:13;1.30;90.00
6948;DHT22;3513;47.664;9.162;2023-02-07T11:14:39;2.50;90.60
6948;DHT22;3513;47.664;9.162;2023-02-07T11:17:05;1.50;89.50
6948;DHT22;3513;47.664;9.162;2023-02-07T11:19:31;3.50;90.70
6948;DHT22;3513;47.664;9.162;2023-02-07T11:22:18;1.70;89.50
6948;DHT22;3513;47.664;9.162;2023-02-07T11:24:45;1.70;87.70
6948;DHT22;3513;47.664;9.162;2023-02-07T11:27:17;3.80;90.00
6948;DHT22;3513;47.664;9.162;2023-02-07T11:29:48;1.80;88.30
6948;DHT22;3513;47.664;9.162;2023-02-07T11:32:15;3.30;90.00
6948;DHT22;3513;47.664;9.162;2023-02-07T11:34:51;3.70;89.60
6948;DHT22;3513;47.664;9.162;2023-02-07T11:37:28;2.70;88.00
6948;DHT22;3513;47.664;9.162;2023-02-07T11:42:48;2.20;86.10
6948;DHT22;3513;47.664;9.162;2023-02-07T11:45:17;2.10;84.40
6948;DHT22;3513;47.664;9.162;2023-02-07T11:47:48;1.60;85.00
6948;DHT22;3513;47.664;9.162;2023-02-07T11:50:23;3.50;87.70
6948;DHT22;3513;47.664;9.162;2023-02-07T11:52:55;1.60;87.60
6948;DHT22;3513;47.664;9.162;2023-02-07T11:55:33;1.80;87.60
6948;DHT22;3513;47.664;9.162;2023-02-07T11:58:06;1.70;86.00
6948;DHT22;3513;47.664;9.162;2023-02-07T12:00:35;1.10;85.60
6948;DHT22;3513;47.664;9.162;2023-02-07T12:03:20;1.80;86.80
6948;DHT22;3513;47.664;9.162;2023-02-07T12:05:50;1.80;86.40
6948;DHT22;3513;47.664;9.162;2023-02-07T12:08:20;1.90;86.70
6948;DHT22;3513;47.664;9.162;2023-02-07T12:10:54;1.90;85.90
6948;DHT22;3513;47.664;9.162;2023-02-07T12:13:29;1.80;84.60
6948;DHT22;3513;47.664;9.162;2023-02-07T12:16:36;1.80;85.60
6948;DHT22;3513;47.664;9.162;2023-02-07T12:25:27;2.10;86.70
6948;DHT22;3513;47.664;9.162;2023-02-07T12:31:53;2.00;85.80
6948;DHT22;3513;47.664;9.162;2023-02-07T12:34:47;3.20;85.00
6948;DHT22;3513;47.664;9.162;2023-02-07T12:40:39;3.00;85.30
6948;DHT22;3513;47.664;9.162;2023-02-07T12:43:29;3.30;83.90
6948;DHT22;3513;47.664;9.162;2023-02-07T12:48:38;3.60;83.20
6948;DHT22;3513;47.664;9.162;2023-02-07T12:56:51;4.10;81.60
6948;DHT22;3513;47.664;9.162;2023-02-07T12:59:47;4.30;80.20
6948;DHT22;3513;47.664;9.162;2023-02-07T13:10:42;5.10;77.50
6948;DHT22;3513;47.664;9.162;2023-02-07T13:13:31;5.50;76.50
6948;DHT22;3513;47.664;9.162;2023-02-07T13:16:13;6.10;73.90
6948;DHT22;3513;47.664;9.162;2023-02-07T13:18:59;6.40;72.00
6948;DHT22;3513;47.664;9.162;2023-02-07T13:21:38;6.80;71.90
6948;DHT22;3513;47.664;9.162;2023-02-07T13:24:06;7.30;68.40
6948;DHT22;3513;47.664;9.162;2023-02-07T13:26:34;8.40;68.00
6948;DHT22;3513;47.664;9.162;2023-02-07T13:29:11;8.60;64.10
6948;DHT22;3513;47.664;9.162;2023-02-07T13:32:07;8.00;63.30
6948;DHT22;3513;47.664;9.162;2023-02-07T13:34:54;8.00;63.30
6948;DHT22;3513;47.664;9.162;2023-02-07T13:37:27;8.30;64.20
6948;DHT22;3513;47.664;9.162;2023-02-07T13:42:40;7.90;56.90
6948;DHT22;3513;47.664;9.162;2023-02-07T13:45:15;6.80;59.80
6948;DHT22;3513;47.664;9.162;2023-02-07T13:47:53;6.60;62.60
6948;DHT22;3513;47.664;9.162;2023-02-07T13:53:22;7.60;64.30
6948;DHT22;3513;47.664;9.162;2023-02-07T13:55:50;8.20;59.80
6948;DHT22;3513;47.664;9.162;2023-02-07T14:01:18;9.10;58.50
6948;DHT22;3513;47.664;9.162;2023-02-07T14:04:09;11.90;58.50
6948;DHT22;3513;47.664;9.162;2023-02-07T14:06:56;9.50;54.10
6948;DHT22;3513;47.664;9.162;2023-02-07T14:09:39;9.40;54.10
6948;DHT22;3513;47.664;9.162;2023-02-07T14:14:44;10.60;55.60
6948;DHT22;3513;47.664;9.162;2023-02-07T14:19:55;9.90;51.50
6948;DHT22;3513;47.664;9.162;2023-02-07T14:22:26;8.80;53.00
6948;DHT22;3513;47.664;9.162;2023-02-07T14:30:11;9.50;54.30
6948;DHT22;3513;47.664;9.162;2023-02-07T14:33:16;9.50;53.30
6948;DHT22;3513;47.664;9.162;2023-02-07T14:38:42;8.30;55.30
6948;DHT22;3513;47.664;9.162;2023-02-07T14:41:15;7.70;55.70
6948;DHT22;3513;47.664;9.162;2023-02-07T14:43:52;9.00;57.20
6948;DHT22;3513;47.664;9.162;2023-02-07T14:46:45;7.60;57.00
6948;DHT22;3513;47.664;9.162;2023-02-07T14:54:34;7.80;56.80
6948;DHT22;3513;47.664;9.162;2023-02-07T15:07:47;10.30;52.80
6948;DHT22;3513;47.664;9.162;2023-02-07T15:10:30;11.50;53.20
6948;DHT22;3513;47.664;9.162;2023-02-07T15:13:00;10.80;51.30
6948;DHT22;3513;47.664;9.162;2023-02-07T15:15:30;11.00;50.60
6948;DHT22;3513;47.664;9.162;2023-02-07T15:17:59;9.90;49.60
6948;DHT22;3513;47.664;9.162;2023-02-07T15:20:31;10.80;50.60
6948;DHT22;3513;47.664;9.162;2023-02-07T15:22:58;10.90;51.20
6948;DHT22;3513;47.664;9.162;2023-02-07T15:25:25;10.90;49.60
6948;DHT22;3513;47.664;9.162;2023-02-07T15:28:02;11.30;50.20
6948;DHT22;3513;47.664;9.162;2023-02-07T15:30:29;10.40;48.90
6948;DHT22;3513;47.664;9.162;2023-02-07T15:32:54;12.00;52.30
6948;DHT22;3513;47.664;9.162;2023-02-07T15:35:23;9.40;49.70
6948;DHT22;3513;47.664;9.162;2023-02-07T15:37:52;9.70;53.30
6948;DHT22;3513;47.664;9.162;2023-02-07T15:40:21;8.30;54.80
6948;DHT22;3513;47.664;9.162;2023-02-07T15:42:55;8.60;56.90
6948;DHT22;3513;47.664;9.162;2023-02-07T15:45:32;7.00;58.20
6948;DHT22;3513;47.664;9.162;2023-02-07T15:48:13;6.90;57.80
6948;DHT22;3513;47.664;9.162;2023-02-07T15:50:54;6.50;57.30
6948;DHT22;3513;47.664;9.162;2023-02-07T15:53:54;5.40;56.10
6948;DHT22;3513;47.664;9.162;2023-02-07T15:56:24;6.10;58.70
6948;DHT22;3513;47.664;9.162;2023-02-07T15:59:08;5.70;59.70
6948;DHT22;3513;47.664;9.162;2023-02-07T16:01:38;5.60;62.90
6948;DHT22;3513;47.664;9.162;2023-02-07T16:04:08;5.80;63.50
6948;DHT22;3513;47.664;9.162;2023-02-07T16:06:34;4.20;61.40
6948;DHT22;3513;47.664;9.162;2023-02-07T16:09:31;6.10;62.30
6948;DHT22;3513;47.664;9.162;2023-02-07T16:11:58;6.10;63.00
6948;DHT22;3513;47.664;9.162;2023-02-07T16:14:24;5.60;62.60
6948;DHT22;3513;47.664;9.162;2023-02-07T16:17:02;6.80;62.60
6948;DHT22;3513;47.664;9.162;2023-02-07T16:19:29;5.50;62.60
6948;DHT22;3513;47.664;9.162;2023-02-07T16:24:34;4.10;66.20
6948;DHT22;3513;47.664;9.162;2023-02-07T16:27:01;3.80;69.40
6948;DHT22;3513;47.664;9.162;2023-02-07T16:29:28;3.60;71.60
6948;DHT22;3513;47.664;9.162;2023-02-07T16:31:54;3.40;72.40
6948;DHT22;3513;47.664;9.162;2023-02-07T16:34:21;3.20;73.20
6948;DHT22;3513;47.664;9.162;2023-02-07T16:36:50;3.10;74.70
6948;DHT22;3513;47.664;9.162;2023-02-07T16:39:16;2.90;75.90
6948;DHT22;3513;47.664;9.162;2023-02-07T16:41:51;3.80;77.90
6948;DHT22;3513;47.664;9.162;2023-02-07T16:44:22;2.60;77.80
6948;DHT22;3513;47.664;9.162;2023-02-07T16:46:48;2.40;78.80
6948;DHT22;3513;47.664;9.162;2023-02-07T16:49:23;4.50;82.10
6948;DHT22;3513;47.664;9.162;2023-02-07T16:51:48;2.10;81.20
6948;DHT22;3513;47.664;9.162;2023-02-07T16:54:14;2.40;82.70
6948;DHT22;3513;47.664;9.162;2023-02-07T16:56:42;1.80;83.60
6948;DHT22;3513;47.664;9.162;2023-02-07T16:59:13;2.90;85.40
6948;DHT22;3513;47.664;9.162;2023-02-07T17:01:39;1.50;85.40
6948;DHT22;3513;47.664;9.162;2023-02-07T17:04:05;1.70;86.70
6948;DHT22;3513;47.664;9.162;2023-02-07T17:06:31;2.80;89.30
6948;DHT22;3513;47.664;9.162;2023-02-07T17:08:57;2.30;90.10
6948;DHT22;3513;47.664;9.162;2023-02-07T17:11:23;1.00;90.00
6948;DHT22;3513;47.664;9.162;2023-02-07T17:13:54;0.90;90.50
6948;DHT22;3513;47.664;9.162;2023-02-07T17:16:21;0.80;90.90
6948;DHT22;3513;47.664;9.162;2023-02-07T17:18:47;0.60;91.50
6948;DHT22;3513;47.664;9.162;2023-02-07T17:21:13;0.50;92.00
6948;DHT22;3513;47.664;9.162;2023-02-07T17:23:44;0.50;92.60
6948;DHT22;3513;47.664;9.162;2023-02-07T17:26:24;0.40;93.20
6948;DHT22;3513;47.664;9.162;2023-02-07T17:28:52;0.30;93.70
6948;DHT22;3513;47.664;9.162;2023-02-07T17:31:18;0.20;94.20
6948;DHT22;3513;47.664;9.162;2023-02-07T17:33:52;-0.70;94.20
6948;DHT22;3513;47.664;9.162;2023-02-07T17:36:22;0.00;94.90
6948;DHT22;3513;47.664;9.162;2023-02-07T17:38:47;0.00;95.40
6948;DHT22;3513;47.664;9.162;2023-02-07T17:41:14;-0.10;95.80
6948;DHT22;3513;47.664;9.162;2023-02-07T17:43:40;1.20;97.00
6948;DHT22;3513;47.664;9.162;2023-02-07T17:48:41;-0.20;97.00
6948;DHT22;3513;47.664;9.162;2023-02-07T17:51:06;0.00;97.00
6948;DHT22;3513;47.664;9.162;2023-02-07T17:53:32;-0.10;96.60
6948;DHT22;3513;47.664;9.162;2023-02-07T17:55:57;-0.10;97.00
6948;DHT22;3513;47.664;9.162;2023-02-07T17:58:23;-0.20;96.80
6948;DHT22;3513;47.664;9.162;2023-02-07T18:00:49;-0.30;97.00
6948;DHT22;3513;47.664;9.162;2023-02-07T18:03:14;-0.30;97.10
6948;DHT22;3513;47.664;9.162;2023-02-07T18:05:40;-0.20;97.30
6948;DHT22;3513;47.664;9.162;2023-02-07T18:08:06;-0.30;97.60
6948;DHT22;3513;47.664;9.162;2023-02-07T18:10:33;-0.50;97.40
6948;DHT22;3513;47.664;9.162;2023-02-07T18:12:59;-0.50;97.70
6948;DHT22;3513;47.664;9.162;2023-02-07T18:15:26;-0.70;97.90
6948;DHT22;3513;47.664;9.162;2023-02-07T18:17:53;-0.70;98.10
6948;DHT22;3513;47.664;9.162;2023-02-07T18:20:20;-0.70;98.30
6948;DHT22;3513;47.664;9.162;2023-02-07T18:22:47;-0.60;98.70
6948;DHT22;3513;47.664;9.162;2023-02-07T18:25:12;-0.60;98.40
6948;DHT22;3513;47.664;9.162;2023-02-07T18:27:38;-0.70;98.40